Time;durP1;ratioP1;P1;durP2;ratioP2;P2;SDS_P1;SDS_P2;PMS_P1;PMS_P2;Temp;Humidity;BMP_temperature;BMP_pressure;BME280_temperature;BME280_humidity;BME280_pressure;Samples;Min_cycle;Max_cycle;Signal;HPM_P1;HPM_P2
2021/10/15 00:04:23;;;;;;;11.93;6.78;;;;;;;7.21;79.42;99467.25;4131695;85;21543;-81
2021/10/15 00:10:25;;;;;;;8.33;5.37;;;;;;;7.25;79.79;99460.77;4123011;85;22351;-82
2021/10/15 00:16:26;;;;;;;16.00;7.03;;;;;;;7.30;80.30;99453.73;4121891;84;21062;-81
2021/10/15 00:22:28;;;;;;;19.40;9.18;;;;;;;7.34;80.69;99456.02;4119359;84;21134;-82
2021/10/15 00:28:29;;;;;;;17.57;8.43;;;;;;;7.35;80.84;99458.16;4027166;86;21057;-81
2021/10/15 00:34:30;;;;;;;13.48;8.43;;;;;;;7.36;80.93;99455.68;3997467;87;21067;-81
2021/10/15 00:40:32;;;;;;;11.97;7.72;;;;;;;7.38;81.02;99441.93;3978445;87;21627;-81
2021/10/15 00:46:35;;;;;;;14.23;6.67;;;;;;;7.39;81.11;99438.06;4122021;84;21022;-81
2021/10/15 00:52:40;;;;;;;16.42;6.50;;;;;;;7.39;80.75;99421.72;4023829;86;21156;-81
2021/10/15 00:58:41;;;;;;;13.62;6.50;;;;;;;7.43;81.33;99417.19;4027461;86;21107;-81
2021/10/15 01:04:43;;;;;;;9.10;5.75;;;;;;;7.45;81.80;99414.92;4024038;86;21078;-83
2021/10/15 01:10:44;;;;;;;13.80;6.65;;;;;;;7.36;81.55;99403.34;4112277;84;21046;-80
2021/10/15 01:16:46;;;;;;;13.43;6.08;;;;;;;7.30;81.54;99403.92;4087392;84;21069;-81
2021/10/15 01:22:47;;;;;;;11.43;5.87;;;;;;;7.24;81.79;99406.09;4016524;86;21065;-81
2021/10/15 01:28:52;;;;;;;13.58;6.17;;;;;;;7.19;82.16;99404.16;4090870;84;22090;-82
2021/10/15 01:34:53;;;;;;;9.68;5.65;;;;;;;7.16;82.21;99393.95;4098073;84;21026;-81
2021/10/15 01:40:55;;;;;;;9.03;5.87;;;;;;;7.11;82.50;99390.13;4085797;84;21148;-81
2021/10/15 01:46:56;;;;;;;12.35;6.25;;;;;;;7.08;82.90;99379.34;4089073;85;21094;-81
2021/10/15 01:52:58;;;;;;;9.90;5.75;;;;;;;7.04;82.95;99376.28;4089886;84;21050;-83
2021/10/15 01:58:59;;;;;;;13.45;6.53;;;;;;;7.03;83.28;99376.07;4081860;85;21102;-80
2021/10/15 02:05:00;;;;;;;13.93;6.95;;;;;;;7.01;83.41;99375.61;4103818;84;21101;-82
2021/10/15 02:11:01;;;;;;;12.03;6.22;;;;;;;7.03;83.51;99370.63;4042621;85;21158;-81
2021/10/15 02:17:04;;;;;;;12.95;6.03;;;;;;;7.01;83.91;99367.45;4018233;87;21085;-83
2021/10/15 02:23:05;;;;;;;12.23;6.25;;;;;;;7.03;84.11;99357.02;4024325;87;21100;-82
2021/10/15 02:29:06;;;;;;;12.58;5.90;;;;;;;7.01;84.34;99351.11;4009248;87;21907;-82
2021/10/15 02:35:09;;;;;;;10.90;6.20;;;;;;;7.01;84.47;99352.47;4025728;87;21038;-81
2021/10/15 02:41:11;;;;;;;9.73;5.37;;;;;;;7.01;84.59;99353.84;4017664;87;21722;-81
2021/10/15 02:47:12;;;;;;;14.00;5.67;;;;;;;7.03;84.67;99347.49;4063695;82;38941;-80
2021/10/15 02:53:13;;;;;;;9.75;5.45;;;;;;;7.10;84.66;99356.66;4165737;84;21543;-80
2021/10/15 02:59:14;;;;;;;12.40;5.55;;;;;;;7.18;85.33;99359.83;4180414;82;21583;-80
2021/10/15 03:05:15;;;;;;;14.38;6.25;;;;;;;7.26;85.52;99353.45;4176838;84;21043;-80
2021/10/15 03:11:18;;;;;;;11.85;5.75;;;;;;;7.27;85.46;99350.95;4152213;84;21159;-79
2021/10/15 03:17:19;;;;;;;10.30;4.97;;;;;;;7.28;85.41;99357.20;4140867;84;21044;-80
2021/10/15 03:23:22;;;;;;;10.55;5.00;;;;;;;7.22;85.16;99355.27;4142489;84;21409;-80
2021/10/15 03:29:23;;;;;;;10.30;4.60;;;;;;;7.24;85.96;99353.00;4141498;84;21078;-83
2021/10/15 03:35:24;;;;;;;8.33;4.87;;;;;;;7.28;85.91;99343.58;4082237;84;21515;-80
2021/10/15 03:41:25;;;;;;;5.75;4.00;;;;;;;7.30;86.24;99343.45;4049402;86;22279;-80
2021/10/15 03:47:27;;;;;;;6.33;4.08;;;;;;;7.34;86.33;99346.28;4032289;86;22218;-80
2021/10/15 03:53:28;;;;;;;7.20;4.15;;;;;;;7.38;86.50;99345.80;4041661;86;21056;-82
2021/10/15 03:59:29;;;;;;;9.73;4.22;;;;;;;7.39;86.37;99347.41;4041827;86;21559;-82
2021/10/15 04:05:31;;;;;;;7.97;4.30;;;;;;;7.42;86.74;99346.13;4029509;86;21647;-82
2021/10/15 04:11:34;;;;;;;6.30;4.05;;;;;;;7.41;86.69;99347.83;4075533;85;21204;-80
2021/10/15 04:17:35;;;;;;;13.20;5.80;;;;;;;7.41;86.87;99348.64;4127204;85;21129;-81
2021/10/15 04:23:36;;;;;;;12.30;5.87;;;;;;;7.41;87.14;99335.02;4124634;85;21090;-80
2021/10/15 04:29:37;;;;;;;11.38;7.03;;;;;;;7.39;87.27;99331.84;4134930;84;21192;-80
2021/10/15 04:35:39;;;;;;;12.95;6.85;;;;;;;7.33;86.97;99333.81;4131737;85;21603;-80
2021/10/15 04:41:40;;;;;;;7.17;4.35;;;;;;;7.26;87.13;99332.23;4130613;85;21085;-81
2021/10/15 04:47:41;;;;;;;10.43;5.58;;;;;;;7.21;87.24;99327.02;4130886;85;21576;-82
2021/10/15 04:53:43;;;;;;;10.25;4.95;;;;;;;7.14;87.39;99320.02;4112139;85;21092;-83
2021/10/15 04:59:44;;;;;;;12.45;6.35;;;;;;;7.12;87.62;99323.09;4130587;85;21467;-81
2021/10/15 05:05:45;;;;;;;15.65;6.80;;;;;;;7.13;87.78;99319.78;4129869;85;21020;-82
2021/10/15 05:11:46;;;;;;;13.72;5.22;;;;;;;7.15;87.99;99318.31;4129358;85;22265;-82
2021/10/15 05:17:48;;;;;;;11.25;5.78;;;;;;;7.22;88.15;99323.95;4142352;84;21161;-81
2021/10/15 05:23:49;;;;;;;10.82;5.97;;;;;;;7.26;87.98;99324.06;4139237;85;21071;-81
2021/10/15 05:29:50;;;;;;;9.28;4.65;;;;;;;7.34;88.53;99320.41;4135339;85;21569;-82
2021/10/15 05:35:52;;;;;;;8.55;4.37;;;;;;;7.40;88.86;99313.58;4132210;85;21326;-80
2021/10/15 05:41:54;;;;;;;7.05;3.80;;;;;;;7.42;88.75;99309.36;4141326;85;21055;-82
2021/10/15 05:47:55;;;;;;;6.42;4.37;;;;;;;7.47;88.71;99309.70;4142522;85;21144;-81
2021/10/15 05:53:59;;;;;;;7.95;4.83;;;;;;;7.51;88.54;99311.39;4140207;85;21083;-84
2021/10/15 06:00:02;;;;;;;6.08;3.08;;;;;;;7.64;88.97;99302.59;4139418;85;21441;-82
2021/10/15 06:06:57;;;;;;;4.12;3.12;;;;;;;7.73;88.71;99306.75;4137809;85;21509;-81
2021/10/15 06:18:38;;;;;;;6.03;3.35;;;;;;;8.01;88.93;99298.52;4129581;85;21082;-80
2021/10/15 06:24:36;;;;;;;7.17;3.55;;;;;;;8.15;88.90;99301.60;4128707;85;21657;-81
2021/10/15 06:30:39;;;;;;;6.33;3.37;;;;;;;8.31;88.86;99300.27;4131173;85;21019;-80
2021/10/15 06:36:41;;;;;;;4.83;2.85;;;;;;;8.42;88.71;99303.48;4130856;84;21075;-81
2021/10/15 06:42:42;;;;;;;5.53;2.80;;;;;;;8.62;88.78;99296.16;4034230;86;21079;-80
2021/10/15 06:48:44;;;;;;;5.28;2.50;;;;;;;8.81;88.18;99294.28;4144645;85;21156;-80
2021/10/15 06:54:45;;;;;;;5.03;2.62;;;;;;;9.00;87.73;99289.43;4142967;85;21085;-82
2021/10/15 07:00:47;;;;;;;13.03;5.60;;;;;;;9.21;87.30;99293.40;4141559;85;21057;-80
2021/10/15 07:06:48;;;;;;;6.97;3.98;;;;;;;9.38;86.75;99288.88;4143686;84;21097;-80
2021/10/15 07:12:50;;;;;;;6.25;4.03;;;;;;;9.62;86.47;99288.35;4142252;84;21127;-80
2021/10/15 07:18:51;;;;;;;5.85;2.87;;;;;;;9.81;86.25;99286.39;4149614;84;21094;-81
2021/10/15 07:24:52;;;;;;;4.83;2.05;;;;;;;10.01;86.03;99277.56;4145047;84;21091;-80
2021/10/15 07:30:57;;;;;;;3.62;2.02;;;;;;;10.22;85.57;99277.97;4144400;84;21455;-80
2021/10/15 07:36:58;;;;;;;2.58;1.55;;;;;;;10.46;85.06;99273.49;4146680;84;21115;-81
2021/10/15 07:43:00;;;;;;;3.50;2.00;;;;;;;10.74;84.10;99268.45;4143111;84;21098;-81
2021/10/15 07:49:01;;;;;;;3.62;2.12;;;;;;;11.13;84.93;99264.30;4144993;84;21104;-82
2021/10/15 07:55:04;;;;;;;2.67;1.60;;;;;;;11.45;83.94;99264.70;4147047;84;21551;-81
2021/10/15 08:01:05;;;;;;;3.92;1.60;;;;;;;11.74;83.19;99266.04;4143298;84;21089;-80
2021/10/15 08:07:06;;;;;;;3.95;1.80;;;;;;;12.13;83.22;99260.35;4141239;84;21774;-80
2021/10/15 08:13:08;;;;;;;3.92;1.72;;;;;;;12.37;81.30;99269.36;4092548;83;21103;-84
2021/10/15 08:19:09;;;;;;;4.80;1.75;;;;;;;12.41;79.85;99266.66;4035856;86;21060;-84
2021/10/15 08:25:10;;;;;;;2.85;1.57;;;;;;;12.72;75.75;99259.23;4041555;86;21055;-82
2021/10/15 08:31:12;;;;;;;3.70;1.80;;;;;;;13.41;77.81;99253.94;4041277;86;21062;-79
2021/10/15 08:37:14;;;;;;;4.00;1.67;;;;;;;13.72;72.92;99249.13;4039597;86;21138;-82
2021/10/15 08:43:16;;;;;;;3.55;1.65;;;;;;;14.70;76.13;99246.27;4037941;86;21106;-81
2021/10/15 08:49:17;;;;;;;2.67;1.65;;;;;;;15.83;74.84;99233.66;4045173;86;21075;-81
2021/10/15 08:55:19;;;;;;;4.22;1.95;;;;;;;16.76;72.10;99228.38;4043512;86;21118;-81
2021/10/15 09:01:20;;;;;;;3.27;2.50;;;;;;;17.59;73.41;99234.16;4039865;86;21142;-81
2021/10/15 09:07:26;;;;;;;4.78;3.15;;;;;;;18.61;72.62;99229.84;4043838;86;21623;-81
2021/10/15 09:13:30;;;;;;;4.22;2.37;;;;;;;18.98;71.24;99221.84;4111137;84;21065;-82
2021/10/15 09:19:40;;;;;;;3.60;1.80;;;;;;;19.74;70.49;99226.44;4143010;84;22225;-81
2021/10/15 09:25:45;;;;;;;2.77;1.10;;;;;;;20.18;68.31;99221.67;4168003;84;21065;-81
2021/10/15 09:31:50;;;;;;;2.98;1.80;;;;;;;20.71;67.59;99210.59;4163961;84;21173;-82
2021/10/15 09:37:55;;;;;;;2.05;1.10;;;;;;;20.20;65.39;99215.05;4165471;84;21033;-82
2021/10/15 09:43:56;;;;;;;1.55;1.32;;;;;;;20.32;61.87;99214.19;4161381;84;21545;-81
2021/10/15 09:50:02;;;;;;;1.50;1.10;;;;;;;20.83;62.93;99207.09;4168553;84;21069;-81
2021/10/15 09:56:07;;;;;;;1.47;1.10;;;;;;;21.14;60.02;99200.52;4141560;84;21615;-81
2021/10/15 10:02:08;;;;;;;4.92;2.40;;;;;;;21.33;60.92;99194.77;4166371;84;21043;-84
2021/10/15 10:08:12;;;;;;;3.50;2.33;;;;;;;20.81;59.79;99182.33;4165371;84;21104;-82
2021/10/15 10:14:20;;;;;;;1.90;1.30;;;;;;;20.62;59.60;99179.84;4167050;84;21123;-82
2021/10/15 10:20:31;;;;;;;2.75;1.30;;;;;;;20.37;59.54;99173.36;4169528;84;21056;-81
2021/10/15 10:26:52;;;;;;;2.72;1.35;;;;;;;20.85;58.37;99171.27;4154241;84;21585;-82
2021/10/15 10:33:01;;;;;;;3.22;1.45;;;;;;;21.42;57.57;99164.89;4167506;84;21126;-83
2021/10/15 10:39:26;;;;;;;2.12;1.22;;;;;;;21.12;56.45;99163.98;4164199;84;21067;-83
2021/10/15 10:45:28;;;;;;;1.50;0.90;;;;;;;20.36;54.84;99153.73;4164017;84;21113;-82
2021/10/15 10:51:31;;;;;;;1.82;1.00;;;;;;;19.61;55.48;99151.14;4164020;84;21039;-82
2021/10/15 10:57:41;;;;;;;1.45;1.05;;;;;;;19.37;55.26;99140.00;4161686;84;21390;-83
2021/10/15 11:03:42;;;;;;;3.72;1.10;;;;;;;19.29;54.86;99135.81;4167144;84;21007;-83
2021/10/15 11:10:03;;;;;;;1.87;0.98;;;;;;;19.10;54.65;99129.64;4165533;84;21238;-83
2021/10/15 11:16:25;;;;;;;1.82;1.32;;;;;;;18.71;54.36;99124.89;4164192;84;21131;-82
2021/10/15 11:22:26;;;;;;;2.72;1.40;;;;;;;18.26;54.34;99120.96;4165986;84;21102;-82
2021/10/15 11:28:31;;;;;;;2.50;1.22;;;;;;;18.07;54.68;99104.44;4168061;84;21168;-82
2021/10/15 11:34:32;;;;;;;2.65;1.37;;;;;;;17.85;54.61;99094.16;4166094;84;21525;-82
2021/10/15 11:40:43;;;;;;;2.42;1.40;;;;;;;17.61;55.02;99097.50;4165450;84;21597;-83
2021/10/15 11:46:44;;;;;;;2.67;1.30;;;;;;;17.52;55.17;99086.78;4164720;84;21020;-83
2021/10/15 11:52:56;;;;;;;3.62;1.55;;;;;;;17.31;54.57;99086.45;4164873;84;21211;-83
2021/10/15 11:58:59;;;;;;;5.22;1.42;;;;;;;17.08;55.29;99082.25;4157623;84;21187;-82
2021/10/15 12:05:01;;;;;;;2.85;1.20;;;;;;;17.00;55.45;99082.95;4168103;84;21068;-83
2021/10/15 12:11:04;;;;;;;1.92;1.42;;;;;;;16.95;55.72;99075.11;4168618;84;21413;-82
2021/10/15 12:17:11;;;;;;;2.40;1.30;;;;;;;16.78;55.80;99075.33;4143983;84;22192;-82
2021/10/15 12:23:13;;;;;;;4.37;1.35;;;;;;;16.57;56.04;99065.92;4147519;84;21074;-83
2021/10/15 12:29:30;;;;;;;3.22;1.42;;;;;;;16.45;56.64;99067.82;4145339;84;21047;-81
2021/10/15 12:35:33;;;;;;;6.40;2.12;;;;;;;16.35;56.72;99066.71;4145661;84;22072;-82
2021/10/15 12:41:37;;;;;;;3.42;1.80;;;;;;;16.18;56.86;99064.92;4151801;83;21582;-82
2021/10/15 12:47:40;;;;;;;5.35;2.83;;;;;;;15.89;56.59;99066.41;4067159;86;21114;-82
2021/10/15 12:53:49;;;;;;;4.20;2.27;;;;;;;15.65;56.89;99067.38;3992389;87;21197;-82
2021/10/15 13:00:11;;;;;;;6.72;1.75;;;;;;;15.47;57.34;99062.61;4034256;87;21069;-83
2021/10/15 13:06:13;;;;;;;3.15;1.37;;;;;;;15.36;57.74;99059.88;4032221;87;21095;-83
2021/10/15 13:12:14;;;;;;;6.83;2.40;;;;;;;15.35;58.80;99054.19;4005180;85;21043;-83
2021/10/15 13:18:15;;;;;;;3.10;1.60;;;;;;;15.27;58.85;99051.87;4099343;85;21029;-82
2021/10/15 13:24:16;;;;;;;3.52;1.30;;;;;;;15.28;58.72;99032.77;4032330;86;21147;-83
2021/10/15 13:30:18;;;;;;;2.90;1.20;;;;;;;15.08;58.80;99034.48;4054371;86;21108;-83
2021/10/15 13:36:20;;;;;;;2.33;1.30;;;;;;;14.85;58.45;99030.08;4108366;85;21082;-83
2021/10/15 13:55:07;;;;;;;2.02;1.55;;;;;;;14.36;59.29;99004.91;4034943;86;21112;-82
2021/10/15 14:07:17;;;;;;;4.12;2.02;;;;;;;14.26;60.01;99003.59;4024559;86;21238;-83
2021/10/15 14:13:19;;;;;;;5.58;1.80;;;;;;;14.15;59.94;99018.73;4105037;85;21544;-82
2021/10/15 14:19:20;;;;;;;3.95;2.30;;;;;;;14.05;60.47;99025.84;4194411;82;21051;-82
2021/10/15 14:25:21;;;;;;;2.67;1.67;;;;;;;13.91;61.00;99029.20;4192842;83;21112;-81
2021/10/15 14:31:23;;;;;;;2.95;1.75;;;;;;;13.82;61.12;99034.33;4192212;83;21077;-81
2021/10/15 14:37:24;;;;;;;4.05;1.67;;;;;;;13.64;61.51;99031.59;4189408;83;21098;-82
2021/10/15 14:43:25;;;;;;;6.05;1.77;;;;;;;13.55;62.41;99031.79;4097591;85;21110;-81
2021/10/15 14:49:27;;;;;;;3.70;2.33;;;;;;;13.42;62.90;99034.14;4098403;85;21041;-82
2021/10/15 14:55:28;;;;;;;6.72;1.92;;;;;;;13.27;62.65;99021.58;4194689;83;21755;-81
2021/10/15 15:01:29;;;;;;;3.80;2.08;;;;;;;13.10;62.66;99017.44;4196662;83;21522;-83
2021/10/15 15:07:31;;;;;;;6.45;2.40;;;;;;;12.92;62.81;99018.73;4191699;83;21557;-83
2021/10/15 15:13:36;;;;;;;5.62;2.67;;;;;;;12.84;63.13;99030.12;4194068;83;21355;-82
2021/10/15 15:19:38;;;;;;;8.90;3.17;;;;;;;12.77;63.57;99036.38;4192021;83;21069;-83
2021/10/15 15:25:39;;;;;;;7.12;3.15;;;;;;;12.71;64.26;99030.27;4193810;83;21146;-84
2021/10/15 15:31:41;;;;;;;4.97;2.77;;;;;;;12.60;64.53;99037.91;4189613;83;21646;-84
2021/10/15 15:37:45;;;;;;;4.83;2.83;;;;;;;12.49;64.54;99030.21;4200863;83;21141;-81
2021/10/15 15:43:48;;;;;;;6.97;2.90;;;;;;;12.45;64.99;99036.83;4201126;82;21114;-82
2021/10/15 15:49:51;;;;;;;5.87;2.72;;;;;;;12.39;64.84;99048.78;4198433;83;20991;-81
2021/10/15 15:55:54;;;;;;;9.95;3.25;;;;;;;12.35;64.80;99047.20;4197399;83;21105;-81
2021/10/15 16:01:55;;;;;;;8.93;3.83;;;;;;;12.27;65.67;99047.75;4194606;83;21007;-81
2021/10/15 16:07:57;;;;;;;6.40;3.45;;;;;;;12.19;65.99;99055.75;4195162;83;21500;-83
2021/10/15 16:13:58;;;;;;;5.65;3.00;;;;;;;12.14;66.08;99068.45;4193998;83;21073;-81
2021/10/15 16:19:59;;;;;;;5.42;3.50;;;;;;;12.10;66.29;99064.91;4196561;83;21578;-81
2021/10/15 16:26:01;;;;;;;6.30;3.50;;;;;;;12.04;66.28;99064.28;4194390;83;21100;-82
2021/10/15 16:32:02;;;;;;;5.50;2.95;;;;;;;11.92;66.66;99071.43;4194259;83;21066;-81
2021/10/15 16:38:04;;;;;;;10.53;4.83;;;;;;;11.83;66.62;99074.52;4194034;83;21042;-82
2021/10/15 16:44:05;;;;;;;11.30;6.25;;;;;;;11.82;66.81;99062.56;4195637;83;21038;-81
2021/10/15 16:50:08;;;;;;;7.40;4.58;;;;;;;11.70;67.10;99071.86;4192526;83;21039;-82
2021/10/15 16:56:10;;;;;;;7.85;3.92;;;;;;;11.62;66.96;99061.20;4080993;83;10000110;-81
2021/10/15 17:02:12;;;;;;;7.58;4.22;;;;;;;11.47;67.14;99048.53;4201897;82;21591;-81
2021/10/15 17:08:15;;;;;;;6.50;4.20;;;;;;;11.35;67.35;99055.68;4192079;83;21046;-81
2021/10/15 17:14:16;;;;;;;12.78;4.22;;;;;;;11.19;67.72;99055.13;4211176;83;21531;-81
2021/10/15 17:20:18;;;;;;;6.53;3.87;;;;;;;11.07;67.86;99060.32;4193930;83;21031;-81
2021/10/15 17:26:19;;;;;;;7.33;3.92;;;;;;;10.99;67.99;99055.93;4194314;83;21144;-83
2021/10/15 17:32:20;;;;;;;9.93;5.30;;;;;;;10.95;68.16;99051.78;4193802;83;21737;-82
2021/10/15 17:38:21;;;;;;;8.83;4.92;;;;;;;10.89;68.18;99051.12;4197763;83;21640;-81
2021/10/15 17:44:23;;;;;;;8.33;4.55;;;;;;;10.81;68.49;99051.62;4191467;83;21530;-81
2021/10/15 17:50:24;;;;;;;10.08;5.15;;;;;;;10.77;68.96;99049.41;4192853;83;21042;-82
2021/10/15 17:56:26;;;;;;;12.85;5.87;;;;;;;10.53;69.18;99049.94;4192914;83;21042;-82
2021/10/15 18:02:27;;;;;;;8.80;5.37;;;;;;;10.42;69.75;99053.69;4197034;83;20998;-81
2021/10/15 18:08:28;;;;;;;12.00;6.33;;;;;;;10.30;70.29;99041.06;4100865;85;21048;-80
2021/10/15 18:14:29;;;;;;;16.05;8.35;;;;;;;10.09;69.91;99034.50;4046900;86;21917;-81
2021/10/15 18:20:31;;;;;;;17.52;10.93;;;;;;;9.90;70.22;99025.81;3923965;85;10000467;-81
2021/10/15 18:26:32;;;;;;;14.58;7.97;;;;;;;9.86;70.93;99034.55;4036255;87;21153;-83
2021/10/15 18:32:33;;;;;;;15.00;7.92;;;;;;;9.86;71.52;99033.19;3973591;88;21629;-81
2021/10/15 18:38:37;;;;;;;17.35;11.63;;;;;;;9.83;71.27;99033.13;3968640;88;21240;-81
2021/10/15 18:44:38;;;;;;;20.77;11.63;;;;;;;9.78;71.79;99030.70;4036614;87;21101;-81
2021/10/15 18:50:41;;;;;;;18.90;10.80;;;;;;;9.85;72.70;99023.98;4038859;87;21092;-81
2021/10/15 18:56:43;;;;;;;31.80;18.23;;;;;;;9.79;72.50;99021.37;3971334;88;21609;-81
2021/10/15 19:02:44;;;;;;;27.93;15.05;;;;;;;9.85;73.04;99015.19;4035663;87;21092;-81
2021/10/15 19:08:46;;;;;;;25.72;12.43;;;;;;;9.90;73.10;99020.34;4035122;87;21066;-80
2021/10/15 19:14:47;;;;;;;30.50;14.35;;;;;;;9.81;73.31;99026.66;3983706;87;21103;-83
2021/10/15 19:20:49;;;;;;;25.75;13.40;;;;;;;9.76;74.60;99016.61;4085818;85;21219;-81
2021/10/15 19:26:51;;;;;;;26.23;12.65;;;;;;;9.83;74.17;99021.62;4197536;83;21057;-81
2021/10/15 19:32:52;;;;;;;21.05;10.10;;;;;;;9.80;74.24;99037.97;4190517;83;21026;-81
2021/10/15 19:38:55;;;;;;;18.35;9.68;;;;;;;9.89;74.44;99035.75;4102016;85;21068;-81
2021/10/15 19:44:56;;;;;;;23.50;13.93;;;;;;;9.87;74.57;99025.75;4049965;86;21027;-81
2021/10/15 19:50:58;;;;;;;413.25;207.87;;;;;;;9.81;75.04;99013.00;4048213;86;21035;-81
2021/10/15 19:56:59;;;;;;;117.15;56.83;;;;;;;9.89;75.24;99008.41;4046460;86;22146;-81
2021/10/15 20:03:00;;;;;;;44.95;22.67;;;;;;;9.91;75.96;99008.84;4098403;85;21075;-81
2021/10/15 20:09:05;;;;;;;46.88;21.80;;;;;;;9.97;76.16;98997.78;4192020;83;21049;-83
2021/10/15 20:15:06;;;;;;;29.07;14.58;;;;;;;9.93;76.15;98996.95;4193345;83;21022;-83
2021/10/15 20:21:08;;;;;;;32.98;16.70;;;;;;;9.75;76.16;99005.48;4110891;85;21051;-83
2021/10/15 20:27:09;;;;;;;28.87;16.30;;;;;;;9.73;76.79;98998.22;4204507;83;21080;-81
2021/10/15 20:33:11;;;;;;;28.35;14.28;;;;;;;9.84;77.08;99001.89;4207242;83;21089;-81
2021/10/15 20:39:12;;;;;;;32.53;16.82;;;;;;;9.90;77.52;99000.44;4205409;83;21117;-81
2021/10/15 20:45:13;;;;;;;34.63;16.67;;;;;;;9.81;76.77;98993.06;4204655;83;21137;-81
2021/10/15 20:51:15;;;;;;;30.20;16.32;;;;;;;9.75;77.02;98993.17;4108832;85;21594;-82
2021/10/15 20:57:16;;;;;;;21.12;11.35;;;;;;;9.70;77.29;99000.32;4208896;83;21066;-81
2021/10/15 21:03:18;;;;;;;11.80;6.97;;;;;;;9.71;77.61;98990.38;4204549;83;21053;-82
2021/10/15 21:09:19;;;;;;;14.40;6.92;;;;;;;9.79;77.69;98992.66;4205308;83;21140;-81
2021/10/15 21:15:20;;;;;;;12.05;7.53;;;;;;;9.89;77.64;98993.37;4195552;83;21980;-81
2021/10/15 21:21:22;;;;;;;15.00;9.93;;;;;;;9.98;77.86;99003.45;4171586;84;21031;-80
2021/10/15 21:27:23;;;;;;;16.35;8.40;;;;;;;9.99;78.19;99003.67;4169937;84;21021;-81
2021/10/15 21:33:24;;;;;;;10.58;6.83;;;;;;;9.99;78.45;99017.34;4173222;84;21047;-81
2021/10/15 21:39:26;;;;;;;14.78;8.30;;;;;;;10.03;78.54;99020.34;4171218;84;21042;-81
2021/10/15 21:45:27;;;;;;;12.73;7.75;;;;;;;10.04;79.12;99027.38;4176333;84;22332;-81
2021/10/15 21:51:29;;;;;;;14.68;7.80;;;;;;;10.04;79.47;99032.08;4171009;84;21665;-80
2021/10/15 21:57:30;;;;;;;13.70;7.87;;;;;;;10.01;79.51;99026.75;4169124;84;21016;-81
2021/10/15 22:03:31;;;;;;;15.28;8.23;;;;;;;10.00;79.72;99035.33;4171730;84;21014;-81
2021/10/15 22:09:32;;;;;;;22.10;10.50;;;;;;;10.02;79.82;99054.33;4171818;84;21101;-81
2021/10/15 22:15:34;;;;;;;25.52;15.38;;;;;;;10.03;79.83;99068.20;4182200;83;21097;-81
2021/10/15 22:21:36;;;;;;;32.83;17.75;;;;;;;10.01;79.80;99091.02;4208063;83;21770;-81
2021/10/15 22:27:43;;;;;;;31.50;17.07;;;;;;;10.02;79.82;99105.49;4204211;83;21086;-81
2021/10/15 22:33:42;;;;;;;30.60;17.55;;;;;;;9.97;79.87;99109.91;4206237;83;21084;-81
2021/10/15 22:39:43;;;;;;;26.07;15.25;;;;;;;9.91;80.24;99113.55;4214498;82;21026;-81
2021/10/15 22:45:45;;;;;;;25.05;15.13;;;;;;;9.91;80.61;99125.05;4207424;83;21044;-81
2021/10/15 22:51:46;;;;;;;26.95;16.35;;;;;;;9.89;80.99;99121.31;4214269;83;21066;-81
2021/10/15 22:57:50;;;;;;;27.42;18.07;;;;;;;9.87;81.70;99127.72;4206527;83;21053;-82
2021/10/15 23:03:51;;;;;;;35.70;19.12;;;;;;;9.80;81.83;99134.45;4201076;83;21033;-82
2021/10/15 23:09:52;;;;;;;31.42;17.42;;;;;;;9.75;82.24;99142.95;4206489;83;21076;-83
2021/10/15 23:15:53;;;;;;;23.95;14.55;;;;;;;9.75;82.62;99151.73;4204505;83;21249;-82
2021/10/15 23:21:55;;;;;;;22.67;12.90;;;;;;;9.74;82.77;99162.46;4199746;83;21098;-84
2021/10/15 23:27:56;;;;;;;16.23;10.78;;;;;;;9.73;83.17;99159.50;4192101;83;21457;-82
2021/10/15 23:33:57;;;;;;;16.67;10.80;;;;;;;9.71;83.24;99172.77;4193449;83;21072;-83
2021/10/15 23:40:00;;;;;;;16.62;10.28;;;;;;;9.69;83.26;99177.80;4196756;83;21057;-83
2021/10/15 23:46:02;;;;;;;15.63;10.13;;;;;;;9.67;83.51;99175.99;4198150;83;21034;-81
2021/10/15 23:52:04;;;;;;;17.05;11.12;;;;;;;9.68;83.56;99183.06;4192422;83;21557;-82
2021/10/15 23:58:05;;;;;;;18.67;11.57;;;;;;;9.66;83.72;99186.16;4098935;85;21025;-83
